sensor_id;sensor_type;location;lat;lon;timestamp;P1;durP1;ratioP1;P2;durP2;ratioP2
5042;SDS011;2540;50.928;6.856;2023-11-18T00:00:18;35.67;;;17.43;;
5042;SDS011;2540;50.928;6.856;2023-11-18T00:02:43;33.33;;;16.17;;
5042;SDS011;2540;50.928;6.856;2023-11-18T00:05:09;35.00;;;16.80;;
5042;SDS011;2540;50.928;6.856;2023-11-18T00:07:35;33.67;;;16.90;;
5042;SDS011;2540;50.928;6.856;2023-11-18T00:10:01;39.00;;;17.10;;
5042;SDS011;2540;50.928;6.856;2023-11-18T00:12:26;41.07;;;16.90;;
5042;SDS011;2540;50.928;6.856;2023-11-18T00:14:52;38.13;;;18.43;;
5042;SDS011;2540;50.928;6.856;2023-11-18T00:17:17;35.23;;;16.60;;
5042;SDS011;2540;50.928;6.856;2023-11-18T00:19:43;43.10;;;17.87;;
5042;SDS011;2540;50.928;6.856;2023-11-18T00:22:09;39.47;;;18.60;;
5042;SDS011;2540;50.928;6.856;2023-11-18T00:24:35;42.70;;;19.00;;
5042;SDS011;2540;50.928;6.856;2023-11-18T00:27:01;40.97;;;18.00;;
5042;SDS011;2540;50.928;6.856;2023-11-18T00:29:31;42.53;;;19.03;;
5042;SDS011;2540;50.928;6.856;2023-11-18T00:31:57;43.93;;;18.70;;
5042;SDS011;2540;50.928;6.856;2023-11-18T00:34:23;39.50;;;17.77;;
5042;SDS011;2540;50.928;6.856;2023-11-18T00:36:48;42.23;;;19.30;;
5042;SDS011;2540;50.928;6.856;2023-11-18T00:39:13;45.87;;;18.40;;
5042;SDS011;2540;50.928;6.856;2023-11-18T00:41:39;44.47;;;19.13;;
5042;SDS011;2540;50.928;6.856;2023-11-18T00:44:04;42.57;;;18.50;;
5042;SDS011;2540;50.928;6.856;2023-11-18T00:46:32;43.43;;;18.27;;
5042;SDS011;2540;50.928;6.856;2023-11-18T00:49:00;43.07;;;19.97;;
5042;SDS011;2540;50.928;6.856;2023-11-18T00:51:26;42.40;;;18.20;;
5042;SDS011;2540;50.928;6.856;2023-11-18T00:53:52;46.60;;;18.30;;
5042;SDS011;2540;50.928;6.856;2023-11-18T00:56:19;53.07;;;19.30;;
5042;SDS011;2540;50.928;6.856;2023-11-18T00:58:46;47.37;;;17.70;;
5042;SDS011;2540;50.928;6.856;2023-11-18T01:01:14;48.27;;;20.17;;
5042;SDS011;2540;50.928;6.856;2023-11-18T01:03:42;51.93;;;20.10;;
5042;SDS011;2540;50.928;6.856;2023-11-18T01:06:08;43.97;;;18.33;;
5042;SDS011;2540;50.928;6.856;2023-11-18T01:08:34;50.10;;;18.73;;
5042;SDS011;2540;50.928;6.856;2023-11-18T01:10:59;56.90;;;19.53;;
5042;SDS011;2540;50.928;6.856;2023-11-18T01:13:24;50.13;;;19.10;;
5042;SDS011;2540;50.928;6.856;2023-11-18T01:15:51;52.10;;;17.83;;
5042;SDS011;2540;50.928;6.856;2023-11-18T01:18:16;55.80;;;20.17;;
5042;SDS011;2540;50.928;6.856;2023-11-18T01:20:42;55.97;;;20.27;;
5042;SDS011;2540;50.928;6.856;2023-11-18T01:23:08;68.03;;;21.13;;
5042;SDS011;2540;50.928;6.856;2023-11-18T01:25:33;64.00;;;20.20;;
5042;SDS011;2540;50.928;6.856;2023-11-18T01:27:59;53.30;;;20.57;;
5042;SDS011;2540;50.928;6.856;2023-11-18T01:30:25;58.60;;;20.20;;
5042;SDS011;2540;50.928;6.856;2023-11-18T01:32:51;59.50;;;20.50;;
5042;SDS011;2540;50.928;6.856;2023-11-18T01:35:17;58.67;;;20.53;;
5042;SDS011;2540;50.928;6.856;2023-11-18T01:37:42;62.30;;;21.90;;
5042;SDS011;2540;50.928;6.856;2023-11-18T01:40:09;57.57;;;20.53;;
5042;SDS011;2540;50.928;6.856;2023-11-18T01:42:37;62.70;;;22.77;;
5042;SDS011;2540;50.928;6.856;2023-11-18T01:45:03;68.50;;;22.80;;
5042;SDS011;2540;50.928;6.856;2023-11-18T01:47:30;66.77;;;21.20;;
5042;SDS011;2540;50.928;6.856;2023-11-18T01:49:57;69.90;;;21.50;;
5042;SDS011;2540;50.928;6.856;2023-11-18T01:52:24;60.23;;;20.93;;
5042;SDS011;2540;50.928;6.856;2023-11-18T01:54:51;63.13;;;21.50;;
5042;SDS011;2540;50.928;6.856;2023-11-18T01:57:20;71.67;;;23.73;;
5042;SDS011;2540;50.928;6.856;2023-11-18T01:59:45;72.40;;;21.30;;
5042;SDS011;2540;50.928;6.856;2023-11-18T02:02:11;70.50;;;22.67;;
5042;SDS011;2540;50.928;6.856;2023-11-18T02:04:36;64.13;;;22.33;;
5042;SDS011;2540;50.928;6.856;2023-11-18T02:07:02;70.00;;;21.60;;
5042;SDS011;2540;50.928;6.856;2023-11-18T02:09:31;66.67;;;22.27;;
5042;SDS011;2540;50.928;6.856;2023-11-18T02:14:38;61.60;;;21.17;;
5042;SDS011;2540;50.928;6.856;2023-11-18T02:17:04;63.43;;;21.73;;
5042;SDS011;2540;50.928;6.856;2023-11-18T02:19:30;66.17;;;21.23;;
5042;SDS011;2540;50.928;6.856;2023-11-18T02:21:56;64.67;;;22.47;;
5042;SDS011;2540;50.928;6.856;2023-11-18T02:24:31;61.40;;;21.47;;
5042;SDS011;2540;50.928;6.856;2023-11-18T02:27:01;66.63;;;22.30;;
5042;SDS011;2540;50.928;6.856;2023-11-18T02:29:28;63.23;;;21.70;;
5042;SDS011;2540;50.928;6.856;2023-11-18T02:31:57;58.93;;;21.30;;
5042;SDS011;2540;50.928;6.856;2023-11-18T02:34:27;60.10;;;21.70;;
5042;SDS011;2540;50.928;6.856;2023-11-18T02:36:57;51.93;;;20.50;;
5042;SDS011;2540;50.928;6.856;2023-11-18T02:39:36;61.13;;;22.43;;
5042;SDS011;2540;50.928;6.856;2023-11-18T02:42:06;56.93;;;21.60;;
5042;SDS011;2540;50.928;6.856;2023-11-18T02:44:33;59.43;;;20.80;;
5042;SDS011;2540;50.928;6.856;2023-11-18T02:47:00;59.17;;;20.90;;
5042;SDS011;2540;50.928;6.856;2023-11-18T02:49:25;59.43;;;20.70;;
5042;SDS011;2540;50.928;6.856;2023-11-18T02:51:50;55.80;;;20.97;;
5042;SDS011;2540;50.928;6.856;2023-11-18T02:54:16;49.97;;;18.80;;
5042;SDS011;2540;50.928;6.856;2023-11-18T02:56:41;56.40;;;19.90;;
5042;SDS011;2540;50.928;6.856;2023-11-18T02:59:07;49.60;;;20.13;;
5042;SDS011;2540;50.928;6.856;2023-11-18T03:01:32;48.80;;;18.67;;
5042;SDS011;2540;50.928;6.856;2023-11-18T03:03:59;60.37;;;20.50;;
5042;SDS011;2540;50.928;6.856;2023-11-18T03:06:24;53.87;;;20.40;;
5042;SDS011;2540;50.928;6.856;2023-11-18T03:08:50;51.73;;;19.57;;
5042;SDS011;2540;50.928;6.856;2023-11-18T03:11:16;53.97;;;19.73;;
5042;SDS011;2540;50.928;6.856;2023-11-18T03:13:42;54.47;;;19.93;;
5042;SDS011;2540;50.928;6.856;2023-11-18T03:16:08;47.33;;;18.43;;
5042;SDS011;2540;50.928;6.856;2023-11-18T03:18:38;48.33;;;19.50;;
5042;SDS011;2540;50.928;6.856;2023-11-18T03:21:05;51.67;;;19.90;;
5042;SDS011;2540;50.928;6.856;2023-11-18T03:23:31;50.37;;;19.13;;
5042;SDS011;2540;50.928;6.856;2023-11-18T03:25:57;57.63;;;19.77;;
5042;SDS011;2540;50.928;6.856;2023-11-18T03:28:23;46.00;;;19.10;;
5042;SDS011;2540;50.928;6.856;2023-11-18T03:30:48;45.50;;;18.27;;
5042;SDS011;2540;50.928;6.856;2023-11-18T03:33:14;43.57;;;17.53;;
5042;SDS011;2540;50.928;6.856;2023-11-18T03:35:39;48.93;;;20.07;;
5042;SDS011;2540;50.928;6.856;2023-11-18T03:38:04;38.73;;;16.27;;
5042;SDS011;2540;50.928;6.856;2023-11-18T03:40:30;48.50;;;18.77;;
5042;SDS011;2540;50.928;6.856;2023-11-18T03:42:55;41.83;;;17.17;;
5042;SDS011;2540;50.928;6.856;2023-11-18T03:45:21;46.10;;;17.90;;
5042;SDS011;2540;50.928;6.856;2023-11-18T03:47:48;46.03;;;18.17;;
5042;SDS011;2540;50.928;6.856;2023-11-18T03:50:15;41.00;;;17.83;;
5042;SDS011;2540;50.928;6.856;2023-11-18T03:52:40;43.70;;;18.63;;
5042;SDS011;2540;50.928;6.856;2023-11-18T03:55:06;40.40;;;17.83;;
5042;SDS011;2540;50.928;6.856;2023-11-18T03:57:32;47.03;;;18.07;;
5042;SDS011;2540;50.928;6.856;2023-11-18T03:59:57;43.97;;;18.07;;
5042;SDS011;2540;50.928;6.856;2023-11-18T04:02:22;44.10;;;18.60;;
5042;SDS011;2540;50.928;6.856;2023-11-18T04:04:48;37.80;;;16.90;;
5042;SDS011;2540;50.928;6.856;2023-11-18T04:07:13;45.57;;;17.97;;
5042;SDS011;2540;50.928;6.856;2023-11-18T04:09:39;39.10;;;17.63;;
5042;SDS011;2540;50.928;6.856;2023-11-18T04:12:06;45.17;;;16.53;;
5042;SDS011;2540;50.928;6.856;2023-11-18T04:14:32;43.30;;;18.53;;
5042;SDS011;2540;50.928;6.856;2023-11-18T04:16:58;45.17;;;19.17;;
5042;SDS011;2540;50.928;6.856;2023-11-18T04:19:23;40.60;;;16.97;;
5042;SDS011;2540;50.928;6.856;2023-11-18T04:21:48;46.07;;;17.70;;
5042;SDS011;2540;50.928;6.856;2023-11-18T04:24:14;47.10;;;19.10;;
5042;SDS011;2540;50.928;6.856;2023-11-18T04:26:40;49.80;;;20.60;;
5042;SDS011;2540;50.928;6.856;2023-11-18T04:29:06;41.13;;;17.60;;
5042;SDS011;2540;50.928;6.856;2023-11-18T04:31:31;42.73;;;17.53;;
5042;SDS011;2540;50.928;6.856;2023-11-18T04:33:56;41.43;;;18.13;;
5042;SDS011;2540;50.928;6.856;2023-11-18T04:36:21;40.47;;;17.97;;
5042;SDS011;2540;50.928;6.856;2023-11-18T04:38:47;39.33;;;16.90;;
5042;SDS011;2540;50.928;6.856;2023-11-18T04:41:13;44.10;;;18.20;;
5042;SDS011;2540;50.928;6.856;2023-11-18T04:43:38;41.00;;;18.80;;
5042;SDS011;2540;50.928;6.856;2023-11-18T04:46:05;42.33;;;17.90;;
5042;SDS011;2540;50.928;6.856;2023-11-18T04:48:31;45.03;;;18.70;;
5042;SDS011;2540;50.928;6.856;2023-11-18T04:50:57;46.13;;;19.23;;
5042;SDS011;2540;50.928;6.856;2023-11-18T04:53:23;48.77;;;19.60;;
5042;SDS011;2540;50.928;6.856;2023-11-18T04:55:50;40.80;;;17.97;;
5042;SDS011;2540;50.928;6.856;2023-11-18T04:58:15;48.77;;;20.10;;
5042;SDS011;2540;50.928;6.856;2023-11-18T05:00:41;41.63;;;17.30;;
5042;SDS011;2540;50.928;6.856;2023-11-18T05:03:07;47.00;;;18.70;;
5042;SDS011;2540;50.928;6.856;2023-11-18T05:05:39;47.60;;;19.30;;
5042;SDS011;2540;50.928;6.856;2023-11-18T05:08:05;48.97;;;18.83;;
5042;SDS011;2540;50.928;6.856;2023-11-18T05:10:31;43.50;;;17.60;;
5042;SDS011;2540;50.928;6.856;2023-11-18T05:12:57;48.60;;;18.10;;
5042;SDS011;2540;50.928;6.856;2023-11-18T05:15:23;48.23;;;20.10;;
5042;SDS011;2540;50.928;6.856;2023-11-18T05:17:51;42.40;;;18.53;;
5042;SDS011;2540;50.928;6.856;2023-11-18T05:20:17;47.43;;;19.63;;
5042;SDS011;2540;50.928;6.856;2023-11-18T05:22:43;43.50;;;19.07;;
5042;SDS011;2540;50.928;6.856;2023-11-18T05:25:08;45.93;;;19.60;;
5042;SDS011;2540;50.928;6.856;2023-11-18T05:27:34;44.60;;;17.93;;
5042;SDS011;2540;50.928;6.856;2023-11-18T05:30:00;40.90;;;16.60;;
5042;SDS011;2540;50.928;6.856;2023-11-18T05:32:28;43.10;;;18.40;;
5042;SDS011;2540;50.928;6.856;2023-11-18T05:34:55;43.23;;;17.60;;
5042;SDS011;2540;50.928;6.856;2023-11-18T05:37:22;50.87;;;20.70;;
5042;SDS011;2540;50.928;6.856;2023-11-18T05:39:48;46.30;;;18.17;;
5042;SDS011;2540;50.928;6.856;2023-11-18T05:42:18;40.63;;;18.13;;
5042;SDS011;2540;50.928;6.856;2023-11-18T05:44:44;45.90;;;17.50;;
5042;SDS011;2540;50.928;6.856;2023-11-18T05:47:09;41.83;;;19.50;;
5042;SDS011;2540;50.928;6.856;2023-11-18T05:49:37;41.73;;;18.23;;
5042;SDS011;2540;50.928;6.856;2023-11-18T05:52:03;37.90;;;16.37;;
5042;SDS011;2540;50.928;6.856;2023-11-18T05:54:29;49.40;;;19.57;;
5042;SDS011;2540;50.928;6.856;2023-11-18T05:56:54;41.73;;;17.43;;
5042;SDS011;2540;50.928;6.856;2023-11-18T05:59:19;42.30;;;17.67;;
5042;SDS011;2540;50.928;6.856;2023-11-18T06:01:47;41.80;;;17.90;;
5042;SDS011;2540;50.928;6.856;2023-11-18T06:04:12;45.90;;;18.10;;
5042;SDS011;2540;50.928;6.856;2023-11-18T06:06:38;40.17;;;17.67;;
5042;SDS011;2540;50.928;6.856;2023-11-18T06:09:03;39.97;;;17.80;;
5042;SDS011;2540;50.928;6.856;2023-11-18T06:11:34;47.97;;;17.17;;
5042;SDS011;2540;50.928;6.856;2023-11-18T06:14:00;39.97;;;16.67;;
5042;SDS011;2540;50.928;6.856;2023-11-18T06:16:25;40.17;;;16.13;;
5042;SDS011;2540;50.928;6.856;2023-11-18T06:18:52;40.97;;;16.97;;
5042;SDS011;2540;50.928;6.856;2023-11-18T06:21:21;40.00;;;16.80;;
5042;SDS011;2540;50.928;6.856;2023-11-18T06:23:53;42.20;;;17.60;;
5042;SDS011;2540;50.928;6.856;2023-11-18T06:26:19;45.43;;;16.50;;
5042;SDS011;2540;50.928;6.856;2023-11-18T06:28:45;34.73;;;15.97;;
5042;SDS011;2540;50.928;6.856;2023-11-18T06:31:12;35.50;;;16.57;;
5042;SDS011;2540;50.928;6.856;2023-11-18T06:33:39;38.27;;;17.23;;
5042;SDS011;2540;50.928;6.856;2023-11-18T06:36:19;43.37;;;16.07;;
5042;SDS011;2540;50.928;6.856;2023-11-18T06:38:46;44.30;;;16.40;;
5042;SDS011;2540;50.928;6.856;2023-11-18T06:41:14;39.90;;;17.30;;
5042;SDS011;2540;50.928;6.856;2023-11-18T06:43:41;37.43;;;14.83;;
5042;SDS011;2540;50.928;6.856;2023-11-18T06:46:23;32.23;;;15.00;;
5042;SDS011;2540;50.928;6.856;2023-11-18T06:48:53;35.40;;;15.90;;
5042;SDS011;2540;50.928;6.856;2023-11-18T06:51:19;28.87;;;14.10;;
5042;SDS011;2540;50.928;6.856;2023-11-18T06:53:48;34.30;;;15.57;;
5042;SDS011;2540;50.928;6.856;2023-11-18T06:56:14;37.37;;;15.70;;
5042;SDS011;2540;50.928;6.856;2023-11-18T06:58:40;33.53;;;13.63;;
5042;SDS011;2540;50.928;6.856;2023-11-18T07:01:07;36.70;;;15.80;;
5042;SDS011;2540;50.928;6.856;2023-11-18T07:03:34;34.47;;;15.33;;
5042;SDS011;2540;50.928;6.856;2023-11-18T07:06:00;33.67;;;14.60;;
5042;SDS011;2540;50.928;6.856;2023-11-18T07:08:26;34.13;;;15.60;;
5042;SDS011;2540;50.928;6.856;2023-11-18T07:11:00;37.53;;;15.03;;
5042;SDS011;2540;50.928;6.856;2023-11-18T07:13:31;33.33;;;14.60;;
5042;SDS011;2540;50.928;6.856;2023-11-18T07:15:59;30.60;;;14.07;;
5042;SDS011;2540;50.928;6.856;2023-11-18T07:18:28;32.27;;;14.60;;
5042;SDS011;2540;50.928;6.856;2023-11-18T07:20:55;32.63;;;15.23;;
5042;SDS011;2540;50.928;6.856;2023-11-18T07:23:20;31.10;;;14.30;;
5042;SDS011;2540;50.928;6.856;2023-11-18T07:25:46;32.10;;;14.60;;
5042;SDS011;2540;50.928;6.856;2023-11-18T07:28:12;33.13;;;14.40;;
5042;SDS011;2540;50.928;6.856;2023-11-18T07:30:40;31.03;;;12.67;;
5042;SDS011;2540;50.928;6.856;2023-11-18T07:33:12;32.70;;;13.90;;
5042;SDS011;2540;50.928;6.856;2023-11-18T07:35:42;35.27;;;15.67;;
5042;SDS011;2540;50.928;6.856;2023-11-18T07:38:07;28.47;;;14.10;;
5042;SDS011;2540;50.928;6.856;2023-11-18T07:40:33;30.17;;;14.00;;
5042;SDS011;2540;50.928;6.856;2023-11-18T07:42:59;36.17;;;15.03;;
5042;SDS011;2540;50.928;6.856;2023-11-18T07:45:27;31.97;;;16.37;;
5042;SDS011;2540;50.928;6.856;2023-11-18T07:47:53;34.33;;;14.00;;
5042;SDS011;2540;50.928;6.856;2023-11-18T07:50:22;33.93;;;13.93;;
5042;SDS011;2540;50.928;6.856;2023-11-18T07:52:47;33.20;;;13.80;;
5042;SDS011;2540;50.928;6.856;2023-11-18T07:55:14;33.60;;;15.40;;
5042;SDS011;2540;50.928;6.856;2023-11-18T07:57:40;34.00;;;13.27;;
5042;SDS011;2540;50.928;6.856;2023-11-18T08:00:05;28.70;;;14.17;;
5042;SDS011;2540;50.928;6.856;2023-11-18T08:02:34;34.90;;;14.23;;
5042;SDS011;2540;50.928;6.856;2023-11-18T08:05:01;27.47;;;13.00;;
5042;SDS011;2540;50.928;6.856;2023-11-18T08:07:28;25.30;;;12.13;;
5042;SDS011;2540;50.928;6.856;2023-11-18T08:09:53;30.60;;;13.80;;
5042;SDS011;2540;50.928;6.856;2023-11-18T08:12:19;30.87;;;12.17;;
5042;SDS011;2540;50.928;6.856;2023-11-18T08:14:45;26.87;;;12.60;;
5042;SDS011;2540;50.928;6.856;2023-11-18T08:17:12;27.17;;;12.00;;
5042;SDS011;2540;50.928;6.856;2023-11-18T08:19:38;27.47;;;12.30;;
5042;SDS011;2540;50.928;6.856;2023-11-18T08:22:03;22.80;;;11.53;;
5042;SDS011;2540;50.928;6.856;2023-11-18T08:24:29;25.67;;;12.10;;
5042;SDS011;2540;50.928;6.856;2023-11-18T08:26:54;20.63;;;10.53;;
5042;SDS011;2540;50.928;6.856;2023-11-18T08:29:20;23.33;;;11.13;;
5042;SDS011;2540;50.928;6.856;2023-11-18T08:31:47;25.37;;;11.90;;
5042;SDS011;2540;50.928;6.856;2023-11-18T08:34:12;25.87;;;12.33;;
5042;SDS011;2540;50.928;6.856;2023-11-18T08:36:38;21.03;;;10.53;;
5042;SDS011;2540;50.928;6.856;2023-11-18T08:39:03;29.23;;;13.20;;
5042;SDS011;2540;50.928;6.856;2023-11-18T08:41:29;25.77;;;11.23;;
5042;SDS011;2540;50.928;6.856;2023-11-18T08:43:56;28.03;;;10.83;;
5042;SDS011;2540;50.928;6.856;2023-11-18T08:46:22;23.60;;;10.93;;
5042;SDS011;2540;50.928;6.856;2023-11-18T08:48:47;16.93;;;9.70;;
5042;SDS011;2540;50.928;6.856;2023-11-18T08:51:13;23.47;;;10.90;;
5042;SDS011;2540;50.928;6.856;2023-11-18T08:53:38;25.27;;;10.93;;
5042;SDS011;2540;50.928;6.856;2023-11-18T08:56:10;20.87;;;10.47;;
5042;SDS011;2540;50.928;6.856;2023-11-18T08:58:42;25.43;;;11.43;;
5042;SDS011;2540;50.928;6.856;2023-11-18T09:01:09;22.27;;;11.03;;
5042;SDS011;2540;50.928;6.856;2023-11-18T09:03:41;19.40;;;9.90;;
5042;SDS011;2540;50.928;6.856;2023-11-18T09:06:17;24.40;;;10.87;;
5042;SDS011;2540;50.928;6.856;2023-11-18T09:08:42;22.47;;;11.93;;
5042;SDS011;2540;50.928;6.856;2023-11-18T09:11:09;23.57;;;10.23;;
5042;SDS011;2540;50.928;6.856;2023-11-18T09:13:36;19.83;;;9.50;;
5042;SDS011;2540;50.928;6.856;2023-11-18T09:16:02;24.00;;;11.20;;
5042;SDS011;2540;50.928;6.856;2023-11-18T09:18:29;23.47;;;10.50;;
5042;SDS011;2540;50.928;6.856;2023-11-18T09:20:58;21.17;;;10.83;;
5042;SDS011;2540;50.928;6.856;2023-11-18T09:23:26;25.60;;;10.27;;
5042;SDS011;2540;50.928;6.856;2023-11-18T09:25:52;19.73;;;10.23;;
5042;SDS011;2540;50.928;6.856;2023-11-18T09:28:18;21.47;;;10.70;;
5042;SDS011;2540;50.928;6.856;2023-11-18T09:30:47;19.60;;;9.83;;
5042;SDS011;2540;50.928;6.856;2023-11-18T09:33:19;19.53;;;10.27;;
5042;SDS011;2540;50.928;6.856;2023-11-18T09:35:54;23.57;;;11.13;;
5042;SDS011;2540;50.928;6.856;2023-11-18T09:38:23;20.87;;;9.60;;
5042;SDS011;2540;50.928;6.856;2023-11-18T09:40:49;19.80;;;8.87;;
5042;SDS011;2540;50.928;6.856;2023-11-18T09:43:17;20.43;;;10.60;;
5042;SDS011;2540;50.928;6.856;2023-11-18T09:45:44;18.27;;;9.30;;
5042;SDS011;2540;50.928;6.856;2023-11-18T09:48:12;17.33;;;9.63;;
5042;SDS011;2540;50.928;6.856;2023-11-18T09:50:43;17.80;;;9.30;;
5042;SDS011;2540;50.928;6.856;2023-11-18T09:53:12;19.07;;;9.03;;
5042;SDS011;2540;50.928;6.856;2023-11-18T09:55:47;18.10;;;9.23;;
5042;SDS011;2540;50.928;6.856;2023-11-18T09:58:20;16.90;;;9.57;;
5042;SDS011;2540;50.928;6.856;2023-11-18T10:00:49;20.80;;;8.27;;
5042;SDS011;2540;50.928;6.856;2023-11-18T10:03:16;16.40;;;7.23;;
5042;SDS011;2540;50.928;6.856;2023-11-18T10:05:41;14.80;;;7.87;;
5042;SDS011;2540;50.928;6.856;2023-11-18T10:08:07;14.90;;;8.20;;
5042;SDS011;2540;50.928;6.856;2023-11-18T10:10:33;16.10;;;7.80;;
5042;SDS011;2540;50.928;6.856;2023-11-18T10:13:01;13.23;;;7.67;;
5042;SDS011;2540;50.928;6.856;2023-11-18T10:15:29;16.33;;;8.80;;
5042;SDS011;2540;50.928;6.856;2023-11-18T10:17:56;18.47;;;9.10;;
5042;SDS011;2540;50.928;6.856;2023-11-18T10:20:44;16.03;;;8.50;;
5042;SDS011;2540;50.928;6.856;2023-11-18T10:23:10;15.00;;;7.47;;
5042;SDS011;2540;50.928;6.856;2023-11-18T10:25:37;11.87;;;8.17;;
5042;SDS011;2540;50.928;6.856;2023-11-18T10:28:07;15.37;;;8.40;;
5042;SDS011;2540;50.928;6.856;2023-11-18T10:30:42;14.90;;;8.37;;
5042;SDS011;2540;50.928;6.856;2023-11-18T10:33:11;16.77;;;8.50;;
5042;SDS011;2540;50.928;6.856;2023-11-18T10:35:39;17.10;;;9.80;;
5042;SDS011;2540;50.928;6.856;2023-11-18T10:38:15;18.33;;;9.80;;
5042;SDS011;2540;50.928;6.856;2023-11-18T10:40:41;23.00;;;10.00;;
5042;SDS011;2540;50.928;6.856;2023-11-18T10:43:07;16.10;;;8.57;;
5042;SDS011;2540;50.928;6.856;2023-11-18T10:45:34;16.10;;;8.90;;
5042;SDS011;2540;50.928;6.856;2023-11-18T10:48:05;15.97;;;7.67;;
5042;SDS011;2540;50.928;6.856;2023-11-18T10:50:30;15.03;;;7.83;;
5042;SDS011;2540;50.928;6.856;2023-11-18T10:52:57;12.73;;;6.70;;
5042;SDS011;2540;50.928;6.856;2023-11-18T10:55:34;12.60;;;6.80;;
5042;SDS011;2540;50.928;6.856;2023-11-18T10:58:08;13.00;;;7.33;;
5042;SDS011;2540;50.928;6.856;2023-11-18T11:00:45;11.90;;;6.77;;
5042;SDS011;2540;50.928;6.856;2023-11-18T11:03:21;16.20;;;7.43;;
5042;SDS011;2540;50.928;6.856;2023-11-18T11:05:48;12.73;;;7.20;;
5042;SDS011;2540;50.928;6.856;2023-11-18T11:08:14;14.57;;;6.23;;
5042;SDS011;2540;50.928;6.856;2023-11-18T11:10:41;13.50;;;6.60;;
5042;SDS011;2540;50.928;6.856;2023-11-18T11:13:07;13.40;;;7.43;;
5042;SDS011;2540;50.928;6.856;2023-11-18T11:15:33;19.47;;;7.13;;
5042;SDS011;2540;50.928;6.856;2023-11-18T11:18:05;15.70;;;7.53;;
5042;SDS011;2540;50.928;6.856;2023-11-18T11:26:13;17.23;;;7.00;;
5042;SDS011;2540;50.928;6.856;2023-11-18T11:28:55;12.73;;;7.00;;
5042;SDS011;2540;50.928;6.856;2023-11-18T11:31:32;13.60;;;8.53;;
5042;SDS011;2540;50.928;6.856;2023-11-18T11:34:02;13.43;;;7.30;;
5042;SDS011;2540;50.928;6.856;2023-11-18T11:36:30;10.80;;;6.73;;
5042;SDS011;2540;50.928;6.856;2023-11-18T11:39:01;15.67;;;7.90;;
5042;SDS011;2540;50.928;6.856;2023-11-18T11:41:28;14.77;;;7.50;;
5042;SDS011;2540;50.928;6.856;2023-11-18T11:43:54;11.60;;;6.77;;
5042;SDS011;2540;50.928;6.856;2023-11-18T11:46:20;12.63;;;6.97;;
5042;SDS011;2540;50.928;6.856;2023-11-18T11:48:48;19.10;;;6.80;;
5042;SDS011;2540;50.928;6.856;2023-11-18T11:51:31;16.10;;;6.77;;
5042;SDS011;2540;50.928;6.856;2023-11-18T11:56:43;12.83;;;6.70;;
5042;SDS011;2540;50.928;6.856;2023-11-18T11:59:09;12.47;;;5.60;;
5042;SDS011;2540;50.928;6.856;2023-11-18T12:01:36;8.20;;;5.07;;
5042;SDS011;2540;50.928;6.856;2023-11-18T12:04:08;13.87;;;5.70;;
5042;SDS011;2540;50.928;6.856;2023-11-18T12:06:41;10.17;;;6.17;;
5042;SDS011;2540;50.928;6.856;2023-11-18T12:09:08;14.23;;;5.30;;
5042;SDS011;2540;50.928;6.856;2023-11-18T12:11:37;14.93;;;5.17;;
5042;SDS011;2540;50.928;6.856;2023-11-18T12:14:11;8.50;;;4.03;;
5042;SDS011;2540;50.928;6.856;2023-11-18T12:16:58;7.60;;;4.10;;
5042;SDS011;2540;50.928;6.856;2023-11-18T12:19:33;8.67;;;4.73;;
5042;SDS011;2540;50.928;6.856;2023-11-18T12:22:11;7.30;;;4.10;;
5042;SDS011;2540;50.928;6.856;2023-11-18T12:27:41;10.90;;;4.33;;
5042;SDS011;2540;50.928;6.856;2023-11-18T12:32:58;10.10;;;3.73;;
5042;SDS011;2540;50.928;6.856;2023-11-18T12:35:29;10.67;;;3.53;;
5042;SDS011;2540;50.928;6.856;2023-11-18T12:41:00;8.47;;;3.17;;
5042;SDS011;2540;50.928;6.856;2023-11-18T12:43:48;6.80;;;3.13;;
5042;SDS011;2540;50.928;6.856;2023-11-18T12:46:32;6.18;;;3.30;;
5042;SDS011;2540;50.928;6.856;2023-11-18T12:49:14;3.93;;;2.60;;
5042;SDS011;2540;50.928;6.856;2023-11-18T12:51:40;15.30;;;4.10;;
5042;SDS011;2540;50.928;6.856;2023-11-18T12:54:08;8.67;;;4.97;;
5042;SDS011;2540;50.928;6.856;2023-11-18T12:56:37;4.53;;;3.40;;
5042;SDS011;2540;50.928;6.856;2023-11-18T12:59:03;6.00;;;3.20;;
5042;SDS011;2540;50.928;6.856;2023-11-18T13:01:31;4.87;;;3.20;;
5042;SDS011;2540;50.928;6.856;2023-11-18T13:04:01;5.00;;;3.63;;
5042;SDS011;2540;50.928;6.856;2023-11-18T13:06:27;9.20;;;4.20;;
5042;SDS011;2540;50.928;6.856;2023-11-18T13:08:53;8.97;;;5.33;;
5042;SDS011;2540;50.928;6.856;2023-11-18T13:11:21;21.90;;;6.57;;
5042;SDS011;2540;50.928;6.856;2023-11-18T13:13:49;10.37;;;5.43;;
5042;SDS011;2540;50.928;6.856;2023-11-18T13:16:16;9.70;;;5.00;;
5042;SDS011;2540;50.928;6.856;2023-11-18T13:18:46;8.17;;;4.67;;
5042;SDS011;2540;50.928;6.856;2023-11-18T13:21:15;7.37;;;4.10;;
5042;SDS011;2540;50.928;6.856;2023-11-18T13:23:41;10.03;;;4.03;;
5042;SDS011;2540;50.928;6.856;2023-11-18T13:26:07;6.17;;;3.10;;
5042;SDS011;2540;50.928;6.856;2023-11-18T13:28:34;5.17;;;2.70;;
5042;SDS011;2540;50.928;6.856;2023-11-18T13:31:00;6.10;;;2.87;;
5042;SDS011;2540;50.928;6.856;2023-11-18T13:33:26;5.43;;;2.93;;
5042;SDS011;2540;50.928;6.856;2023-11-18T13:35:51;4.20;;;2.70;;
5042;SDS011;2540;50.928;6.856;2023-11-18T13:38:18;5.33;;;3.13;;
5042;SDS011;2540;50.928;6.856;2023-11-18T13:40:47;8.73;;;3.67;;
5042;SDS011;2540;50.928;6.856;2023-11-18T13:43:12;7.67;;;4.13;;
5042;SDS011;2540;50.928;6.856;2023-11-18T13:45:38;5.93;;;3.10;;
5042;SDS011;2540;50.928;6.856;2023-11-18T13:48:04;8.30;;;3.27;;
5042;SDS011;2540;50.928;6.856;2023-11-18T13:50:33;8.03;;;4.50;;
5042;SDS011;2540;50.928;6.856;2023-11-18T13:53:00;9.77;;;3.30;;
5042;SDS011;2540;50.928;6.856;2023-11-18T13:55:25;9.07;;;4.17;;
5042;SDS011;2540;50.928;6.856;2023-11-18T13:57:56;9.37;;;3.03;;
5042;SDS011;2540;50.928;6.856;2023-11-18T14:00:23;9.10;;;4.00;;
5042;SDS011;2540;50.928;6.856;2023-11-18T14:02:52;13.80;;;3.93;;
5042;SDS011;2540;50.928;6.856;2023-11-18T14:05:18;7.03;;;3.40;;
5042;SDS011;2540;50.928;6.856;2023-11-18T14:07:53;8.00;;;3.93;;
5042;SDS011;2540;50.928;6.856;2023-11-18T14:10:21;9.00;;;3.93;;
5042;SDS011;2540;50.928;6.856;2023-11-18T14:12:59;8.57;;;3.93;;
5042;SDS011;2540;50.928;6.856;2023-11-18T14:15:25;11.40;;;4.00;;
5042;SDS011;2540;50.928;6.856;2023-11-18T14:17:50;15.53;;;6.03;;
5042;SDS011;2540;50.928;6.856;2023-11-18T14:20:17;7.67;;;3.57;;
5042;SDS011;2540;50.928;6.856;2023-11-18T14:22:43;7.00;;;3.90;;
5042;SDS011;2540;50.928;6.856;2023-11-18T14:25:08;7.97;;;4.03;;
5042;SDS011;2540;50.928;6.856;2023-11-18T14:27:34;8.67;;;3.73;;
5042;SDS011;2540;50.928;6.856;2023-11-18T14:29:59;6.67;;;3.77;;
5042;SDS011;2540;50.928;6.856;2023-11-18T14:32:25;8.70;;;3.43;;
5042;SDS011;2540;50.928;6.856;2023-11-18T14:34:51;14.70;;;5.10;;
5042;SDS011;2540;50.928;6.856;2023-11-18T14:37:19;11.10;;;4.90;;
5042;SDS011;2540;50.928;6.856;2023-11-18T14:39:44;6.80;;;3.30;;
5042;SDS011;2540;50.928;6.856;2023-11-18T14:42:10;9.07;;;3.80;;
5042;SDS011;2540;50.928;6.856;2023-11-18T14:44:35;9.53;;;4.00;;
5042;SDS011;2540;50.928;6.856;2023-11-18T14:47:01;8.23;;;3.83;;
5042;SDS011;2540;50.928;6.856;2023-11-18T14:49:28;6.40;;;3.17;;
5042;SDS011;2540;50.928;6.856;2023-11-18T14:51:53;9.60;;;3.77;;
5042;SDS011;2540;50.928;6.856;2023-11-18T14:54:19;12.83;;;4.13;;
5042;SDS011;2540;50.928;6.856;2023-11-18T14:56:44;8.60;;;4.20;;
5042;SDS011;2540;50.928;6.856;2023-11-18T14:59:12;6.50;;;4.03;;
5042;SDS011;2540;50.928;6.856;2023-11-18T15:01:37;11.10;;;3.93;;
5042;SDS011;2540;50.928;6.856;2023-11-18T15:04:08;10.93;;;5.53;;
5042;SDS011;2540;50.928;6.856;2023-11-18T15:06:34;10.80;;;3.70;;
5042;SDS011;2540;50.928;6.856;2023-11-18T15:08:59;8.53;;;3.70;;
5042;SDS011;2540;50.928;6.856;2023-11-18T15:11:28;10.70;;;4.03;;
5042;SDS011;2540;50.928;6.856;2023-11-18T15:13:53;8.20;;;3.90;;
5042;SDS011;2540;50.928;6.856;2023-11-18T15:16:18;9.27;;;3.60;;